createdAt,value
2024-01-20T00:00:20.578Z,10.05
2024-01-20T00:02:47.659Z,8.90
2024-01-20T00:05:14.945Z,11.48
2024-01-20T00:07:44.227Z,11.52
2024-01-20T00:10:13.200Z,8.80
2024-01-20T00:12:42.752Z,8.18
2024-01-20T00:15:11.362Z,9.60
2024-01-20T00:17:40.955Z,9.35
2024-01-20T00:20:10.827Z,9.57
2024-01-20T00:22:38.464Z,9.88
2024-01-20T00:25:06.260Z,7.47
2024-01-20T00:27:35.349Z,9.25
2024-01-20T00:30:04.340Z,9.45
2024-01-20T00:32:32.690Z,8.75
2024-01-20T00:35:06.582Z,8.48
2024-01-20T00:37:38.544Z,9.43
2024-01-20T00:40:07.585Z,8.73
2024-01-20T00:42:35.383Z,9.00
2024-01-20T00:45:03.433Z,9.90
2024-01-20T00:47:30.917Z,9.50
2024-01-20T00:49:58.116Z,8.85
2024-01-20T00:52:25.164Z,8.65
2024-01-20T00:54:52.969Z,8.75
2024-01-20T00:57:20.233Z,10.20
2024-01-20T00:59:47.720Z,8.48
2024-01-20T01:02:17.533Z,8.88
2024-01-20T01:04:44.843Z,8.93
2024-01-20T01:07:12.400Z,9.02
2024-01-20T01:09:39.662Z,9.82
2024-01-20T01:12:06.883Z,8.15
2024-01-20T01:14:34.584Z,8.32
2024-01-20T01:17:01.808Z,8.27
2024-01-20T01:19:28.807Z,8.57
2024-01-20T01:21:55.756Z,7.28
2024-01-20T01:24:22.735Z,9.07
2024-01-20T01:26:49.891Z,8.32
2024-01-20T01:29:17.220Z,8.95
2024-01-20T01:31:47.265Z,9.00
2024-01-20T01:34:14.451Z,7.32
2024-01-20T01:36:41.513Z,9.35
2024-01-20T01:39:08.763Z,9.15
2024-01-20T01:41:36.219Z,7.57
2024-01-20T01:44:03.869Z,7.13
2024-01-20T01:46:32.091Z,8.30
2024-01-20T01:48:59.391Z,6.70
2024-01-20T01:51:26.380Z,9.00
2024-01-20T01:53:53.587Z,7.32
2024-01-20T01:56:21.386Z,8.43
2024-01-20T01:58:48.390Z,8.90
2024-01-20T02:01:15.347Z,8.90
2024-01-20T02:03:43.098Z,7.45
2024-01-20T02:06:10.982Z,8.57
2024-01-20T02:08:40.952Z,7.60
2024-01-20T02:11:08.934Z,7.85
2024-01-20T02:13:36.547Z,9.10
2024-01-20T02:16:04.522Z,9.13
2024-01-20T02:18:31.951Z,8.15
2024-01-20T02:20:59.189Z,8.38
2024-01-20T02:23:26.321Z,9.05
2024-01-20T02:25:53.353Z,7.80
2024-01-20T02:28:20.854Z,7.85
2024-01-20T02:30:48.126Z,8.80
2024-01-20T02:33:15.423Z,11.52
2024-01-20T02:35:42.512Z,9.00
2024-01-20T02:38:09.560Z,9.23
2024-01-20T02:40:36.563Z,9.82
2024-01-20T02:43:03.755Z,9.65
2024-01-20T02:45:30.995Z,8.82
2024-01-20T02:47:59.466Z,9.70
2024-01-20T02:50:26.846Z,7.47
2024-01-20T02:52:54.333Z,8.38
2024-01-20T02:55:21.371Z,8.27
2024-01-20T02:57:48.390Z,7.80
2024-01-20T03:00:15.926Z,9.98
2024-01-20T03:02:42.926Z,9.35
2024-01-20T03:05:10.715Z,9.27
2024-01-20T03:07:37.735Z,8.98
2024-01-20T03:10:05.227Z,7.88
2024-01-20T03:12:32.223Z,8.35
2024-01-20T03:14:59.342Z,8.82
2024-01-20T03:17:26.298Z,8.48
2024-01-20T03:19:53.393Z,8.57
2024-01-20T03:22:20.389Z,9.30
2024-01-20T03:24:48.929Z,7.60
2024-01-20T03:27:19.096Z,7.80
2024-01-20T03:29:46.101Z,7.70
2024-01-20T03:32:13.550Z,8.07
2024-01-20T03:34:40.821Z,7.65
2024-01-20T03:37:07.856Z,7.65
2024-01-20T03:39:35.033Z,8.05
2024-01-20T03:42:02.403Z,8.07
2024-01-20T03:44:30.013Z,7.60
2024-01-20T03:46:56.986Z,7.97
2024-01-20T03:49:24.338Z,8.60
2024-01-20T03:51:51.411Z,10.10
2024-01-20T03:54:18.448Z,8.32
2024-01-20T03:56:45.655Z,8.38
2024-01-20T03:59:13.009Z,7.20
2024-01-20T04:01:41.000Z,7.35
2024-01-20T04:04:08.112Z,8.57
2024-01-20T04:06:35.449Z,8.82
2024-01-20T04:09:02.392Z,9.52
2024-01-20T04:11:29.578Z,6.55
2024-01-20T04:13:56.609Z,7.93
2024-01-20T04:16:23.862Z,7.78
2024-01-20T04:18:51.018Z,7.43
2024-01-20T04:21:18.216Z,8.05
2024-01-20T04:23:45.203Z,7.25
2024-01-20T04:26:12.515Z,9.15
2024-01-20T04:28:39.472Z,9.70
2024-01-20T04:31:06.570Z,8.10
2024-01-20T04:33:36.327Z,8.02
2024-01-20T04:36:04.267Z,8.25
2024-01-20T04:38:31.246Z,8.25
2024-01-20T04:40:58.616Z,7.53
2024-01-20T04:43:25.648Z,7.30
2024-01-20T04:45:52.745Z,7.25
2024-01-20T04:48:21.405Z,6.72
2024-01-20T04:50:48.620Z,7.70
2024-01-20T04:53:15.864Z,8.15
2024-01-20T04:55:43.040Z,8.25
2024-01-20T04:58:10.098Z,6.25
2024-01-20T05:00:37.437Z,6.40
2024-01-20T05:03:04.765Z,8.27
2024-01-20T05:05:31.981Z,6.97
2024-01-20T05:07:59.056Z,8.13
2024-01-20T05:10:26.288Z,8.23
2024-01-20T05:12:53.487Z,7.07
2024-01-20T05:15:20.506Z,7.32
2024-01-20T05:17:47.712Z,8.30
2024-01-20T05:20:17.979Z,9.18
2024-01-20T05:22:45.026Z,8.38
2024-01-20T05:25:12.144Z,7.22
2024-01-20T05:27:39.183Z,8.32
2024-01-20T05:30:07.347Z,8.73
2024-01-20T05:32:34.978Z,8.63
2024-01-20T05:35:02.193Z,7.90
2024-01-20T05:37:29.244Z,9.27
2024-01-20T05:39:56.351Z,8.13
2024-01-20T05:42:23.285Z,7.80
2024-01-20T05:44:50.199Z,8.52
2024-01-20T05:47:17.569Z,8.45
2024-01-20T05:49:44.500Z,8.55
2024-01-20T05:52:11.742Z,9.30
2024-01-20T05:54:38.939Z,9.25
2024-01-20T05:57:06.125Z,7.32
2024-01-20T05:59:33.209Z,10.27
2024-01-20T06:02:00.429Z,7.97
2024-01-20T06:04:28.073Z,8.55
2024-01-20T06:06:55.200Z,11.95
2024-01-20T06:09:22.308Z,9.73
2024-01-20T06:11:50.066Z,9.35
2024-01-20T06:14:17.174Z,8.88
2024-01-20T06:16:44.320Z,10.82
2024-01-20T06:19:11.238Z,10.45
2024-01-20T06:21:38.323Z,11.07
2024-01-20T06:24:05.695Z,9.50
2024-01-20T06:26:32.898Z,10.57
2024-01-20T06:28:59.926Z,11.73
2024-01-20T06:31:28.634Z,10.30
2024-01-20T06:33:56.389Z,11.13
2024-01-20T06:36:26.498Z,8.93
2024-01-20T06:38:54.735Z,10.02
2024-01-20T06:41:22.127Z,10.30
2024-01-20T06:43:49.593Z,9.30
2024-01-20T06:46:16.610Z,10.73
2024-01-20T06:48:43.982Z,9.35
2024-01-20T06:51:16.873Z,15.32
2024-01-20T06:53:45.254Z,13.95
2024-01-20T06:56:12.730Z,11.50
2024-01-20T06:58:40.619Z,12.32
2024-01-20T07:01:07.819Z,8.77
2024-01-20T07:03:35.210Z,11.02
2024-01-20T07:06:02.692Z,10.68
2024-01-20T07:08:30.186Z,8.90
2024-01-20T07:10:57.376Z,11.40
2024-01-20T07:13:24.478Z,10.35
2024-01-20T07:15:51.612Z,10.60
2024-01-20T07:18:18.683Z,9.90
2024-01-20T07:20:45.941Z,7.68
2024-01-20T07:23:12.965Z,11.05
2024-01-20T07:25:40.820Z,8.45
2024-01-20T07:28:08.251Z,11.80
2024-01-20T07:30:35.877Z,9.93
2024-01-20T07:33:03.312Z,9.13
2024-01-20T07:35:30.379Z,11.80
2024-01-20T07:37:57.317Z,10.68
2024-01-20T07:40:24.529Z,16.42
2024-01-20T07:42:51.471Z,11.43
2024-01-20T07:45:18.501Z,11.57
2024-01-20T07:47:47.654Z,11.07
2024-01-20T07:50:15.082Z,11.55
2024-01-20T07:52:42.061Z,8.63
2024-01-20T07:55:09.587Z,9.00
2024-01-20T07:57:36.633Z,8.77
2024-01-20T08:00:06.200Z,9.15
2024-01-20T08:02:35.105Z,8.77
2024-01-20T08:05:02.331Z,11.25
2024-01-20T08:07:29.365Z,9.70
2024-01-20T08:09:56.368Z,10.18
2024-01-20T08:12:23.631Z,10.10
2024-01-20T08:14:50.621Z,10.55
2024-01-20T08:17:19.100Z,9.95
2024-01-20T08:19:50.696Z,10.55
2024-01-20T08:22:19.093Z,10.25
2024-01-20T08:24:46.214Z,11.38
2024-01-20T08:27:13.282Z,9.60
2024-01-20T08:29:40.179Z,8.73
2024-01-20T08:32:07.436Z,9.10
2024-01-20T08:34:34.771Z,8.50
2024-01-20T08:37:01.848Z,10.15
2024-01-20T08:39:29.012Z,10.60
2024-01-20T08:41:56.811Z,8.73
2024-01-20T08:44:23.893Z,10.15
2024-01-20T08:46:50.842Z,8.50
2024-01-20T08:49:17.927Z,10.20
2024-01-20T08:51:44.927Z,8.57
2024-01-20T08:54:12.275Z,8.82
2024-01-20T08:56:39.481Z,8.60
2024-01-20T08:59:06.670Z,10.23
2024-01-20T09:01:33.748Z,9.95
2024-01-20T09:04:02.389Z,10.60
2024-01-20T09:06:29.643Z,9.18
2024-01-20T09:08:56.853Z,9.23
2024-01-20T09:11:24.288Z,9.32
2024-01-20T09:13:53.011Z,9.32
2024-01-20T09:16:20.177Z,8.93
2024-01-20T09:18:47.495Z,10.00
2024-01-20T09:21:14.682Z,12.40
2024-01-20T09:23:42.256Z,11.65
2024-01-20T09:26:09.723Z,19.23
2024-01-20T09:28:36.692Z,9.35
2024-01-20T09:31:04.596Z,8.05
2024-01-20T09:33:36.030Z,8.13
2024-01-20T09:36:04.493Z,8.00
2024-01-20T09:38:31.648Z,9.32
2024-01-20T09:40:58.849Z,10.30
2024-01-20T09:43:26.627Z,7.35
2024-01-20T09:45:54.245Z,9.60
2024-01-20T09:48:21.843Z,8.10
2024-01-20T09:50:49.456Z,8.23
2024-01-20T09:53:17.733Z,7.78
2024-01-20T09:55:46.371Z,7.93
2024-01-20T09:58:14.999Z,9.15
2024-01-20T10:00:43.582Z,7.25
2024-01-20T10:03:12.419Z,7.70
2024-01-20T10:05:40.193Z,11.75
2024-01-20T10:08:07.665Z,9.85
2024-01-20T10:10:35.381Z,6.60
2024-01-20T10:13:02.791Z,5.93
2024-01-20T10:15:34.317Z,10.82
2024-01-20T10:18:09.914Z,7.97
2024-01-20T10:20:37.988Z,6.82
2024-01-20T10:23:07.592Z,7.10
2024-01-20T10:25:34.906Z,5.63
2024-01-20T10:28:01.866Z,6.63
2024-01-20T10:30:30.579Z,8.80
2024-01-20T10:33:08.902Z,7.47
2024-01-20T10:35:38.864Z,7.50
2024-01-20T10:38:20.011Z,7.90
2024-01-20T10:40:54.549Z,8.45
2024-01-20T10:43:21.806Z,7.50
2024-01-20T10:46:25.452Z,11.63
2024-01-20T10:48:55.353Z,8.65
2024-01-20T10:51:30.223Z,7.28
2024-01-20T10:53:58.667Z,11.90
2024-01-20T10:56:27.348Z,7.57
2024-01-20T10:59:10.020Z,8.48
2024-01-20T11:01:38.852Z,7.30
2024-01-20T11:04:06.413Z,8.68
2024-01-20T11:06:34.088Z,7.07
2024-01-20T11:09:03.036Z,8.95
2024-01-20T11:11:30.933Z,9.77
2024-01-20T11:14:01.304Z,8.70
2024-01-20T11:16:34.439Z,7.45
2024-01-20T11:19:10.222Z,8.55
2024-01-20T11:21:37.571Z,9.02
2024-01-20T11:24:08.273Z,9.80
2024-01-20T11:26:37.133Z,7.95
2024-01-20T11:29:09.842Z,7.07
2024-01-20T11:31:37.139Z,7.03
2024-01-20T11:34:07.537Z,5.75
2024-01-20T11:36:35.798Z,6.95
2024-01-20T11:39:05.368Z,7.32
2024-01-20T11:41:32.427Z,13.82
2024-01-20T11:43:59.505Z,14.50
2024-01-20T11:46:26.665Z,12.02
2024-01-20T11:48:56.052Z,9.48
2024-01-20T11:51:23.659Z,9.48
2024-01-20T11:53:51.013Z,8.32
2024-01-20T11:56:18.353Z,8.13
2024-01-20T11:58:45.483Z,7.22
2024-01-20T12:01:15.497Z,6.75
2024-01-20T12:03:43.014Z,7.38
2024-01-20T12:06:13.121Z,5.93
2024-01-20T12:08:43.549Z,7.28
2024-01-20T12:11:24.773Z,5.22
2024-01-20T12:13:52.002Z,6.78
2024-01-20T12:16:19.724Z,6.43
2024-01-20T12:18:47.826Z,5.63
2024-01-20T12:21:15.080Z,6.90
2024-01-20T12:23:42.192Z,7.03
2024-01-20T12:26:17.700Z,5.68
2024-01-20T12:28:48.141Z,5.82
2024-01-20T12:31:19.274Z,6.95
2024-01-20T12:33:48.696Z,6.35
2024-01-20T12:36:15.889Z,5.95
2024-01-20T12:38:42.889Z,5.10
2024-01-20T12:41:09.889Z,7.38
2024-01-20T12:43:37.096Z,6.68
2024-01-20T12:46:04.130Z,4.72
2024-01-20T12:48:31.367Z,7.00
2024-01-20T12:50:58.875Z,4.63
2024-01-20T12:53:26.321Z,5.35
2024-01-20T12:55:53.354Z,6.05
2024-01-20T12:58:20.343Z,6.20
2024-01-20T13:00:47.422Z,6.97
2024-01-20T13:03:14.605Z,5.00
2024-01-20T13:05:44.023Z,5.68
2024-01-20T13:08:11.817Z,4.60
2024-01-20T13:10:38.833Z,6.00
2024-01-20T13:13:06.186Z,5.72
2024-01-20T13:15:33.480Z,6.28
2024-01-20T13:18:00.730Z,5.03
2024-01-20T13:20:27.887Z,4.32
2024-01-20T13:22:54.866Z,4.82
2024-01-20T13:25:21.804Z,5.75
2024-01-20T13:27:49.055Z,5.10
2024-01-20T13:30:16.339Z,5.05
2024-01-20T13:32:43.677Z,6.97
2024-01-20T13:35:11.120Z,4.70
2024-01-20T13:37:38.054Z,4.88
2024-01-20T13:40:09.589Z,5.22
2024-01-20T13:42:38.588Z,6.63
2024-01-20T13:45:08.655Z,4.88
2024-01-20T13:47:37.394Z,5.55
2024-01-20T13:50:05.578Z,4.35
2024-01-20T13:52:32.484Z,5.65
2024-01-20T13:54:59.694Z,5.85
2024-01-20T13:57:26.756Z,4.93
2024-01-20T13:59:53.771Z,3.97
2024-01-20T14:02:20.993Z,4.20
2024-01-20T14:04:48.021Z,4.13
2024-01-20T14:07:15.244Z,4.95
2024-01-20T14:09:42.946Z,6.00
2024-01-20T14:12:10.594Z,5.60
2024-01-20T14:14:37.793Z,4.05
2024-01-20T14:17:05.719Z,5.53
2024-01-20T14:19:33.017Z,3.88
2024-01-20T14:22:00.051Z,4.60
2024-01-20T14:24:28.140Z,4.05
2024-01-20T14:26:55.129Z,3.92
2024-01-20T14:29:22.138Z,6.10
2024-01-20T14:31:50.438Z,3.60
2024-01-20T14:34:18.280Z,4.68
2024-01-20T14:36:47.162Z,4.28
2024-01-20T14:39:15.173Z,3.90
2024-01-20T14:41:42.136Z,4.45
2024-01-20T14:44:09.036Z,4.43
2024-01-20T14:46:36.160Z,4.22
2024-01-20T14:49:06.173Z,4.30
2024-01-20T14:51:36.181Z,4.68
2024-01-20T14:54:04.373Z,5.40
2024-01-20T14:56:32.583Z,3.90
2024-01-20T14:59:04.336Z,4.05
2024-01-20T15:01:32.218Z,4.28
2024-01-20T15:03:59.345Z,3.50
2024-01-20T15:06:30.073Z,4.10
2024-01-20T15:08:57.415Z,3.80
2024-01-20T15:11:24.628Z,4.40
2024-01-20T15:13:51.885Z,4.38
2024-01-20T15:16:18.920Z,3.42
2024-01-20T15:18:46.200Z,4.65
2024-01-20T15:21:13.252Z,4.32
2024-01-20T15:23:40.349Z,3.97
2024-01-20T15:26:07.413Z,3.35
2024-01-20T15:28:34.509Z,4.38
2024-01-20T15:31:01.456Z,4.85
2024-01-20T15:33:28.664Z,4.22
2024-01-20T15:35:55.720Z,4.43
2024-01-20T15:38:22.769Z,4.18
2024-01-20T15:40:50.447Z,4.03
2024-01-20T15:43:17.732Z,3.10
2024-01-20T15:45:45.019Z,3.85
2024-01-20T15:48:12.149Z,3.88
2024-01-20T15:50:39.301Z,3.97
2024-01-20T15:53:06.366Z,3.90
2024-01-20T15:55:33.285Z,3.33
2024-01-20T15:58:00.335Z,3.45
2024-01-20T16:00:27.665Z,3.22
2024-01-20T16:02:54.643Z,4.18
2024-01-20T16:05:21.659Z,3.42
2024-01-20T16:07:48.776Z,4.47
2024-01-20T16:10:15.730Z,2.92
2024-01-20T16:12:42.909Z,4.22
2024-01-20T16:15:12.914Z,3.97
2024-01-20T16:17:42.154Z,5.60
2024-01-20T16:20:10.008Z,3.35
2024-01-20T16:22:36.973Z,3.80
2024-01-20T16:25:04.592Z,3.80
2024-01-20T16:27:31.661Z,4.38
2024-01-20T16:29:58.750Z,3.90
2024-01-20T16:32:25.879Z,3.30
2024-01-20T16:34:54.173Z,3.55
2024-01-20T16:37:21.193Z,3.85
2024-01-20T16:39:49.236Z,4.60
2024-01-20T16:42:16.693Z,3.53
2024-01-20T16:44:43.952Z,3.40
2024-01-20T16:47:11.148Z,4.50
2024-01-20T16:49:38.444Z,3.78
2024-01-20T16:52:07.588Z,4.15
2024-01-20T16:54:34.811Z,4.10
2024-01-20T16:57:02.381Z,4.32
2024-01-20T16:59:30.752Z,4.28
2024-01-20T17:01:58.941Z,3.70
2024-01-20T17:04:26.200Z,3.97
2024-01-20T17:06:53.474Z,4.63
2024-01-20T17:09:20.513Z,4.03
2024-01-20T17:11:47.739Z,4.38
2024-01-20T17:14:19.784Z,4.05
2024-01-20T17:16:48.330Z,3.60
2024-01-20T17:19:15.635Z,4.90
2024-01-20T17:21:42.766Z,3.42
2024-01-20T17:24:10.158Z,3.75
2024-01-20T17:26:37.357Z,4.22
2024-01-20T17:29:04.721Z,4.70
2024-01-20T17:31:35.046Z,4.63
2024-01-20T17:34:02.534Z,3.35
2024-01-20T17:36:29.675Z,3.08
2024-01-20T17:38:57.203Z,4.40
2024-01-20T17:41:24.221Z,3.63
2024-01-20T17:43:51.395Z,3.50
2024-01-20T17:46:19.182Z,3.80
2024-01-20T17:48:46.868Z,3.33
2024-01-20T17:51:13.973Z,4.15
2024-01-20T17:53:41.347Z,3.58
2024-01-20T17:56:08.311Z,3.88
2024-01-20T17:58:35.531Z,3.33
2024-01-20T18:01:02.916Z,4.57
2024-01-20T18:03:30.124Z,3.90
2024-01-20T18:05:57.415Z,3.72
2024-01-20T18:08:25.793Z,13.77
2024-01-20T18:10:52.795Z,3.70
2024-01-20T18:13:20.030Z,4.30
2024-01-20T18:15:47.155Z,3.90
2024-01-20T18:18:14.758Z,2.92
2024-01-20T18:20:41.858Z,3.33
2024-01-20T18:23:08.762Z,3.45
2024-01-20T18:25:35.828Z,4.00
2024-01-20T18:28:05.960Z,3.47
2024-01-20T18:30:33.404Z,3.90
2024-01-20T18:33:00.803Z,5.47
2024-01-20T18:35:27.804Z,3.45
2024-01-20T18:37:55.780Z,3.45
2024-01-20T18:40:22.976Z,3.40
2024-01-20T18:42:51.300Z,3.30
2024-01-20T18:45:19.517Z,2.75
2024-01-20T18:47:47.338Z,5.03
2024-01-20T18:50:14.960Z,3.47
2024-01-20T18:52:42.116Z,3.08
2024-01-20T18:55:12.735Z,4.10
2024-01-20T18:57:40.067Z,3.60
2024-01-20T19:00:07.986Z,4.25
2024-01-20T19:02:35.053Z,3.38
2024-01-20T19:05:02.107Z,3.60
2024-01-20T19:07:29.423Z,3.58
2024-01-20T19:09:56.515Z,3.45
2024-01-20T19:12:24.825Z,3.95
2024-01-20T19:14:52.159Z,3.60
2024-01-20T19:17:19.265Z,2.60
2024-01-20T19:19:46.579Z,3.10
2024-01-20T19:22:13.894Z,2.85
2024-01-20T19:24:40.859Z,3.50
2024-01-20T19:27:11.316Z,3.15
2024-01-20T19:29:38.542Z,3.05
2024-01-20T19:32:06.030Z,3.63
2024-01-20T19:34:33.262Z,3.38
2024-01-20T19:37:00.400Z,3.75
2024-01-20T19:39:27.627Z,3.53
2024-01-20T19:41:54.531Z,3.50
2024-01-20T19:44:22.734Z,3.53
2024-01-20T19:46:50.106Z,4.13
2024-01-20T19:49:37.232Z,7.13
2024-01-20T19:52:04.629Z,4.13
2024-01-20T19:54:31.809Z,4.35
2024-01-20T19:57:00.971Z,3.60
2024-01-20T19:59:27.909Z,2.83
2024-01-20T20:01:55.076Z,3.50
2024-01-20T20:04:22.224Z,3.65
2024-01-20T20:06:52.031Z,3.00
2024-01-20T20:09:20.864Z,3.28
2024-01-20T20:11:48.513Z,4.30
2024-01-20T20:14:15.549Z,3.92
2024-01-20T20:16:42.936Z,4.60
2024-01-20T20:19:13.758Z,3.15
2024-01-20T20:21:41.651Z,3.38
2024-01-20T20:24:09.863Z,3.13
2024-01-20T20:26:42.390Z,2.58
2024-01-20T20:29:13.709Z,3.03
2024-01-20T20:31:41.488Z,3.05
2024-01-20T20:34:09.193Z,3.42
2024-01-20T20:36:36.611Z,2.90
2024-01-20T20:39:03.703Z,3.95
2024-01-20T20:41:31.012Z,3.20
2024-01-20T20:43:58.346Z,3.05
2024-01-20T20:46:25.525Z,3.25
2024-01-20T20:48:53.056Z,3.33
2024-01-20T20:51:20.191Z,3.50
2024-01-20T20:53:47.365Z,2.67
2024-01-20T20:56:14.627Z,3.13
2024-01-20T20:58:43.949Z,2.47
2024-01-20T21:01:11.922Z,3.05
2024-01-20T21:03:39.505Z,3.05
2024-01-20T21:06:11.351Z,3.53
2024-01-20T21:08:38.649Z,4.43
2024-01-20T21:11:05.894Z,3.00
2024-01-20T21:13:33.106Z,4.53
2024-01-20T21:16:00.377Z,3.97
2024-01-20T21:18:27.472Z,3.72
2024-01-20T21:20:54.498Z,3.28
2024-01-20T21:23:21.604Z,3.70
2024-01-20T21:25:48.615Z,4.07
2024-01-20T21:28:17.903Z,4.18
2024-01-20T21:30:44.899Z,3.13
2024-01-20T21:33:12.201Z,4.40
2024-01-20T21:35:39.337Z,3.95
2024-01-20T21:38:08.220Z,4.32
2024-01-20T21:40:35.195Z,3.85
2024-01-20T21:43:02.366Z,4.15
2024-01-20T21:45:29.442Z,3.85
2024-01-20T21:47:56.645Z,4.28
2024-01-20T21:50:24.013Z,4.13
2024-01-20T21:52:51.185Z,3.42
2024-01-20T21:55:18.207Z,4.10
2024-01-20T21:57:47.138Z,4.38
2024-01-20T22:00:15.971Z,4.25
2024-01-20T22:02:43.942Z,3.72
2024-01-20T22:05:11.947Z,4.65
2024-01-20T22:07:39.155Z,3.75
2024-01-20T22:10:06.626Z,3.95
2024-01-20T22:12:35.080Z,4.53
2024-01-20T22:15:02.212Z,3.72
2024-01-20T22:17:29.183Z,4.25
2024-01-20T22:19:56.430Z,4.22
2024-01-20T22:22:23.865Z,4.20
2024-01-20T22:24:51.034Z,3.97
2024-01-20T22:27:18.027Z,3.65
2024-01-20T22:29:45.065Z,4.10
2024-01-20T22:32:12.078Z,4.22
2024-01-20T22:34:39.346Z,4.63
2024-01-20T22:37:07.197Z,4.30
2024-01-20T22:39:34.344Z,3.70
2024-01-20T22:42:02.331Z,3.92
2024-01-20T22:44:29.474Z,4.40
2024-01-20T22:46:56.445Z,3.90
2024-01-20T22:49:23.755Z,4.50
2024-01-20T22:51:50.884Z,4.75
2024-01-20T22:54:18.602Z,3.63
2024-01-20T22:56:45.593Z,3.90
2024-01-20T22:59:12.739Z,4.47
2024-01-20T23:01:41.056Z,3.75
2024-01-20T23:04:08.262Z,4.03
2024-01-20T23:06:35.440Z,3.95
2024-01-20T23:09:05.383Z,3.95
2024-01-20T23:11:32.403Z,3.80
2024-01-20T23:13:59.410Z,4.90
2024-01-20T23:16:26.351Z,4.68
2024-01-20T23:18:55.353Z,4.32
2024-01-20T23:21:22.688Z,4.88
2024-01-20T23:23:49.802Z,3.72
2024-01-20T23:26:18.052Z,5.80
2024-01-20T23:28:45.156Z,5.22
2024-01-20T23:31:12.581Z,6.65
2024-01-20T23:33:40.085Z,5.20
2024-01-20T23:36:07.591Z,4.97
2024-01-20T23:38:35.032Z,5.43
2024-01-20T23:41:02.014Z,4.72
2024-01-20T23:43:29.102Z,4.57
2024-01-20T23:45:56.423Z,4.10
2024-01-20T23:48:23.678Z,5.28
2024-01-20T23:50:50.648Z,5.45
2024-01-20T23:53:17.762Z,4.88
2024-01-20T23:55:44.712Z,3.95
2024-01-20T23:58:12.195Z,4.68
